KMTC/MTC METAR and TAF weather

Enter ICAO airport designator
Station Type Date Time Source
KMTC METAR 2019/04/19 09:41 UTC NOAA

KMTC 190941Z AUTO 36011KT 10SM -RA OVC007 07/07 A2960 RMK AO2 SLP029 $


Station Type Date Time Source
KMTC Decoded METAR 2019/04/19 09:41 UTC NOAA

Selfridge Air National Guard Base, MI, United States (KMTC) 42-37N 082-50W
Apr 19, 2019 - 05:41 AM EDT / 2019.04.19 0941 UTC
Wind: from the N (360 degrees) at 13 MPH (11 KT):0
Visibility: 10 mile(s):0
Sky conditions: overcast
Weather: light rain
Temperature: 44 F (7 C)
Dew Point: 44 F (7 C)
Relative Humidity: 100%
Pressure (altimeter): 29.6 in. Hg (1002 hPa)
ob: KMTC 190941Z AUTO 36011KT 10SM -RA OVC007 07/07 A2960 RMK AO2 SLP029
cycle: 9

Station Type Date Time Source
KMTC TAF 2019/04/19 21:03 UTC NOAA

TAF
AMD KMTC 182356Z 1821/1923 27006KT 9000 -RA BKN050 520003 QNH2953INS
BECMG 1911/1912 01012G18KT 4800 -RA OVC005 QNH2963INS
BECMG 1917/1918 02015G25KT 9999 NSW OVC010 QNH2966INS TX15/1823Z TN04/1917Z

Example: see airport list